ESSAEFMA

Guest
Details From ESSA - Stockholm Arlanda
To EFMA - Mariehamn
Flight Number -
Tags generated
Created
Modified
Stats Distance 65 nm / 121 km
Max Altitude 3,700 ft / 1,128 m
Waypoints 3
Social Downloads 1
Likes 0
Share VATSIM

Download

Looking for another format? Having issues loading an existing format? Contact us
Advertisement - Login to hide

Notes

Basic altitude profile: - Ascent Rate: 700ft/min - Ascent Speed: 100kts - Cruise Altitude: 10000ft - Cruise Speed: 120kts - Descent Rate: 1000ft/min - Descent Speed: 130kts Options: - Use NATs: no - Use PACOTS: no - Use low airways: yes - Use high airways: no

Route

ESSA POKAS EFMA

ID Type Via Altitude Latitude Longitude Leg Dist Tot Dist Heading (true) Name
O ESSA APT - 0 ft / 0 m 59.65014˚ 17.94363˚ - 0 nm - Stockholm Arlanda
POKAS FIX - 3,700 ft / 1,128 m 59.98139˚ 19.39250˚ 48 nm 48 nm 65° / 66° -
O EFMA APT - 0 ft / 0 m 60.12220˚ 19.89816˚ 17 nm 65 nm 61° / 61° Mariehamn

Altitude Profile

Advertisement - Login to hide

ESSA

Details ICAO ESSA (ARN)
Name Stockholm Arlanda
Region Sweden
Timezone Europe/Stockholm (UTC+1.0)
Stats Elevation 137 ft / 42 m (AMSL)
Location 59.650140° 17.943628°
Runways 3
Magnetic Variation 6.101° E

METAR

ESSA 151020Z 05006KT 9999 FEW015 BKN023 02/01 Q0983 R01L/29//62 R01R/29//77 R08/29//67 TEMPO BKN008

Decode

TAF

TAF ESSA 150530Z 1506/1606 09010KT 9999 SCT008 BKN020 PROB40 1506/1513 4000 -RADZ BR BKN008 BECMG 1513/1515 29004KT 4000 BR BKN004 TEMPO 1515/1606 2000 -SHSNRA BKN007

Decode

Departure Runways

ID Width Length Bearing (true) Bearing (mag) Surface Threshold Offset Overrun Length
01L 148 ft / 45 m 10,812 ft / 3,296 m 10.35° 4.25° Concrete 0 ft / 0 m 0 ft / 0 m
01R 148 ft / 45 m 8,188 ft / 2,496 m 10.38° 4.28° Asphalt 0 ft / 0 m 0 ft / 0 m
08 148 ft / 45 m 8,178 ft / 2,493 m 75.83° 69.73° Concrete 0 ft / 0 m 0 ft / 0 m
19L 148 ft / 45 m 8,188 ft / 2,496 m 190.39° 184.29° Asphalt 0 ft / 0 m 0 ft / 0 m
19R 148 ft / 45 m 10,812 ft / 3,296 m 190.36° 184.26° Concrete 0 ft / 0 m 0 ft / 0 m
26 148 ft / 45 m 8,178 ft / 2,493 m 255.87° 249.77° Concrete 0 ft / 0 m 0 ft / 0 m

EFMA

Details ICAO EFMA (MHQ)
Name Mariehamn
Region Finland
Timezone Europe/Mariehamn (UTC+2.0)
Stats Elevation 17 ft / 5 m (AMSL)
Location 60.122203° 19.898157°
Runways 1
Magnetic Variation 6.956° E

METAR

EFMA 151020Z AUTO 11008KT 060V150 9999 SCT014 BKN026 04/02 Q0985

Decode

TAF

Not found

Destination Runways

ID Width Length Bearing (true) Bearing (mag) Surface Threshold Offset Overrun Length
03 197 ft / 60 m 6,231 ft / 1,899 m 23.33° 16.37° Asphalt 0 ft / 0 m 161 ft / 49 m
21 197 ft / 60 m 6,231 ft / 1,899 m 203.35° 196.39° Asphalt 0 ft / 0 m 150 ft / 46 m

Approach Navaids

Runway Type Ident Frequency Range Bearing (true) Bearing (mag) Slope Elevation
21 Localiser MA 110.90 MHz 18 nm / 33 km 203.34° 196.38° - 17 ft / 5 m (AMSL)
21 Glidescope MA 110.90 MHz 10 nm / 19 km 203.34° 196.38° 3.50° 17 ft / 5 m (AMSL)

Popular Alternatives